Pelagos — SZSW — position and weather

sailwx.info

Track history (hours):
 
Tides and Currents Weather Stations Pressure Air Temp Water Temp Dewpoint Dewpoint Depression Visibility Wind Speed Wind Dir Waves Ship Positions

Pelagos

Last reported at 2015-Mar-01 14:26 UTC. Time now 2015-Mar-01 19:23 UTC.
Position N 59°38' E 023°20'.

Length 249 m; draft 14.1 m.

Type: Ship (hazmat cat C). MMSI: 240335000.

Date/timePositionNaut miles runAvg speedWind from/ knotsBaromVisibWave heightAir tempDewpointWater temp
2015-Mar-01 14:26N 59°38' E 023°20'1112.6
2015-Mar-01 13:33N 59°41' E 023°41'1814.3
2015-Mar-01 12:18N 59°46' E 024°15'1012.9
2015-Mar-01 11:31N 59°48' E 024°34'5212.3
2015-Mar-01 07:17N 59°59' E 026°15'912.4
2015-Mar-01 06:32N 60°02' E 026°33'1212.5
2015-Mar-01 05:33N 59°60' E 026°58'1411.9
2015-Mar-01 04:24N 60°05' E 027°23'  
2015-Feb-24 17:06N 60°02' E 027°18'710.7
2015-Feb-24 16:26N 59°58' E 027°05'910.1
2015-Feb-24 15:34N 59°59' E 026°48'1010.2
2015-Feb-24 14:33N 59°58' E 026°27'5510.5
2015-Feb-24 09:19N 59°45' E 024°41'7 9.1
2015-Feb-24 08:33N 59°44' E 024°28'10 9.4
2015-Feb-24 07:29N 59°41' E 024°08'9 9.5
2015-Feb-24 06:33N 59°38' E 023°52'9 9.1
2015-Feb-24 05:33N 59°35' E 023°35'9 9.0
2015-Feb-24 04:33N 59°32' E 023°18'348 8.9
2015-Feb-22 13:18N 55°37' E 015°21'7 9.6
2015-Feb-22 12:32N 55°33' E 015°10'9 9.5
2015-Feb-22 11:33N 55°29' E 014°55'9 9.2
2015-Feb-22 10:33N 55°25' E 014°41'9 8.9
2015-Feb-22 09:33N 55°18' E 014°31'9 8.8
2015-Feb-22 08:33N 55°11' E 014°21'8 8.5
2015-Feb-22 07:33N 55°10' E 014°07'9 8.9
2015-Feb-22 06:33N 55°10' E 013°51'9 8.9
2015-Feb-22 05:32N 55°12' E 013°36'9 8.9
2015-Feb-22 04:31N 55°13' E 013°20'9 9.0
2015-Feb-22 03:33N 55°14' E 013°05'9 9.3
2015-Feb-22 02:33N 55°15' E 012°49'8 7.9
2015-Feb-22 01:33N 55°20' E 012°38'9 8.7
2015-Feb-22 00:33N 55°29' E 012°43'9 9.2
2015-Feb-21 23:33N 55°36' E 012°52'10 9.9
2015-Feb-21 22:33N 55°46' E 012°49'1313.0
2015-Feb-21 21:33N 55°58' E 012°41'1111.3
2015-Feb-21 20:33N 56°08' E 012°30'6 6.3
2015-Feb-21 19:33N 56°11' E 012°21'7 6.7
2015-Feb-21 18:33N 56°15' E 012°11'17 8.5
2015-Feb-21 16:33N 56°30' E 011°58'1211.6
2015-Feb-21 15:33N 56°42' E 011°54'1211.5
2015-Feb-21 14:30N 56°53' E 011°47'1111.3
2015-Feb-21 13:33N 57°03' E 011°40'1110.9
2015-Feb-21 12:33N 57°13' E 011°33'1110.9
2015-Feb-21 11:33N 57°24' E 011°26'1110.7
2015-Feb-21 10:31N 57°33' E 011°14'1010.8
2015-Feb-21 09:33N 57°40' E 010°60'1111.0
2015-Feb-21 08:33N 57°47' E 010°44'1212.0
2015-Feb-21 07:31N 57°45' E 010°21'10511.6
2015-Feb-20 22:25N 56°44' E 007°43'18411.6
2015-Feb-20 06:33N 54°08' E 004°52'1511.9
2015-Feb-20 05:19N 53°56' E 004°38'115 9.4
2015-Feb-19 17:06N 52°08' E 003°34'610.9
2015-Feb-19 16:32N 52°05' E 003°43'10 9.8
2015-Feb-19 15:33N 52°02' E 003°58'1010.4
2015-Feb-19 14:33N 51°56' E 004°12'  
Track history (hours):
 
Tides and Currents Weather Stations Pressure Air Temp Water Temp Dewpoint Dewpoint Depression Visibility Wind Speed Wind Dir Waves Ship Positions

Pelagos

Last reported at 2015-Mar-01 14:26 UTC. Time now 2015-Mar-01 19:23 UTC.
Position N 59°38' E 023°20'.

Length 249 m; draft 14.1 m.

Type: Ship (hazmat cat C). MMSI: 240335000.

Date/timePositionNaut miles runAvg speedWind from/ knotsBaromVisibWave heightAir tempDewpointWater temp
2015-Mar-01 14:26N 59°38' E 023°20'1112.6
2015-Mar-01 13:33N 59°41' E 023°41'1814.3
2015-Mar-01 12:18N 59°46' E 024°15'1012.9
2015-Mar-01 11:31N 59°48' E 024°34'5212.3
2015-Mar-01 07:17N 59°59' E 026°15'912.4
2015-Mar-01 06:32N 60°02' E 026°33'1212.5
2015-Mar-01 05:33N 59°60' E 026°58'1411.9
2015-Mar-01 04:24N 60°05' E 027°23'  
2015-Feb-24 17:06N 60°02' E 027°18'710.7
2015-Feb-24 16:26N 59°58' E 027°05'910.1
2015-Feb-24 15:34N 59°59' E 026°48'1010.2
2015-Feb-24 14:33N 59°58' E 026°27'5510.5
2015-Feb-24 09:19N 59°45' E 024°41'7 9.1
2015-Feb-24 08:33N 59°44' E 024°28'10 9.4
2015-Feb-24 07:29N 59°41' E 024°08'9 9.5
2015-Feb-24 06:33N 59°38' E 023°52'9 9.1
2015-Feb-24 05:33N 59°35' E 023°35'9 9.0
2015-Feb-24 04:33N 59°32' E 023°18'348 8.9
2015-Feb-22 13:18N 55°37' E 015°21'7 9.6
2015-Feb-22 12:32N 55°33' E 015°10'9 9.5
2015-Feb-22 11:33N 55°29' E 014°55'9 9.2
2015-Feb-22 10:33N 55°25' E 014°41'9 8.9
2015-Feb-22 09:33N 55°18' E 014°31'9 8.8
2015-Feb-22 08:33N 55°11' E 014°21'8 8.5
2015-Feb-22 07:33N 55°10' E 014°07'9 8.9
2015-Feb-22 06:33N 55°10' E 013°51'9 8.9
2015-Feb-22 05:32N 55°12' E 013°36'9 8.9
2015-Feb-22 04:31N 55°13' E 013°20'9 9.0
2015-Feb-22 03:33N 55°14' E 013°05'9 9.3
2015-Feb-22 02:33N 55°15' E 012°49'8 7.9
2015-Feb-22 01:33N 55°20' E 012°38'9 8.7
2015-Feb-22 00:33N 55°29' E 012°43'9 9.2
2015-Feb-21 23:33N 55°36' E 012°52'10 9.9
2015-Feb-21 22:33N 55°46' E 012°49'1313.0
2015-Feb-21 21:33N 55°58' E 012°41'1111.3
2015-Feb-21 20:33N 56°08' E 012°30'6 6.3
2015-Feb-21 19:33N 56°11' E 012°21'7 6.7
2015-Feb-21 18:33N 56°15' E 012°11'17 8.5
2015-Feb-21 16:33N 56°30' E 011°58'1211.6
2015-Feb-21 15:33N 56°42' E 011°54'1211.5
2015-Feb-21 14:30N 56°53' E 011°47'1111.3
2015-Feb-21 13:33N 57°03' E 011°40'1110.9
2015-Feb-21 12:33N 57°13' E 011°33'1110.9
2015-Feb-21 11:33N 57°24' E 011°26'1110.7
2015-Feb-21 10:31N 57°33' E 011°14'1010.8
2015-Feb-21 09:33N 57°40' E 010°60'1111.0
2015-Feb-21 08:33N 57°47' E 010°44'1212.0
2015-Feb-21 07:31N 57°45' E 010°21'10511.6
2015-Feb-20 22:25N 56°44' E 007°43'18411.6
2015-Feb-20 06:33N 54°08' E 004°52'1511.9
2015-Feb-20 05:19N 53°56' E 004°38'115 9.4
2015-Feb-19 17:06N 52°08' E 003°34'610.9
2015-Feb-19 16:32N 52°05' E 003°43'10 9.8
2015-Feb-19 15:33N 52°02' E 003°58'1010.4
2015-Feb-19 14:33N 51°56' E 004°12'  

Dump ship's entire track history